sensor_id;sensor_type;location;lat;lon;timestamp;pressure;altitude;pressure_sealevel;temperature;humidity
64095;BME280;50353;51.420;5.682;2023-05-25T00:01:50;102236.13;;;11.63;74.93
64095;BME280;50353;51.420;5.682;2023-05-25T00:04:18;102227.72;;;11.54;74.34
64095;BME280;50353;51.420;5.682;2023-05-25T00:06:44;102229.69;;;11.48;75.91
64095;BME280;50353;51.420;5.682;2023-05-25T00:09:11;102235.47;;;12.20;73.74
64095;BME280;50353;51.420;5.682;2023-05-25T00:11:37;102231.25;;;11.95;76.03
64095;BME280;50353;51.420;5.682;2023-05-25T00:14:02;102232.75;;;11.80;76.57
64095;BME280;50353;51.420;5.682;2023-05-25T00:16:28;102224.31;;;12.13;75.63
64095;BME280;50353;51.420;5.682;2023-05-25T00:18:53;102224.81;;;12.22;75.18
64095;BME280;50353;51.420;5.682;2023-05-25T00:21:21;102220.13;;;12.08;76.17
64095;BME280;50353;51.420;5.682;2023-05-25T00:23:46;102231.13;;;11.98;76.61
64095;BME280;50353;51.420;5.682;2023-05-25T00:26:12;102235.06;;;11.88;77.46
64095;BME280;50353;51.420;5.682;2023-05-25T00:28:37;102233.16;;;11.92;76.36
64095;BME280;50353;51.420;5.682;2023-05-25T00:31:02;102237.16;;;12.02;76.19
64095;BME280;50353;51.420;5.682;2023-05-25T00:33:28;102234.25;;;12.08;76.22
64095;BME280;50353;51.420;5.682;2023-05-25T00:35:53;102227.06;;;12.10;76.71
64095;BME280;50353;51.420;5.682;2023-05-25T00:38:18;102232.03;;;11.77;77.78
64095;BME280;50353;51.420;5.682;2023-05-25T00:40:44;102238.72;;;11.65;78.12
64095;BME280;50353;51.420;5.682;2023-05-25T00:43:11;102233.63;;;11.81;77.81
64095;BME280;50353;51.420;5.682;2023-05-25T00:45:37;102232.81;;;11.58;78.68
64095;BME280;50353;51.420;5.682;2023-05-25T00:48:03;102236.19;;;11.62;78.43
64095;BME280;50353;51.420;5.682;2023-05-25T00:50:38;102237.50;;;11.72;78.36
64095;BME280;50353;51.420;5.682;2023-05-25T00:53:05;102237.78;;;11.66;78.70
64095;BME280;50353;51.420;5.682;2023-05-25T00:55:35;102235.75;;;11.50;78.37
64095;BME280;50353;51.420;5.682;2023-05-25T00:58:03;102243.28;;;11.82;77.19
64095;BME280;50353;51.420;5.682;2023-05-25T01:00:29;102243.13;;;11.44;78.27
64095;BME280;50353;51.420;5.682;2023-05-25T01:02:57;102238.78;;;11.63;77.25
64095;BME280;50353;51.420;5.682;2023-05-25T01:05:24;102246.66;;;11.86;77.24
64095;BME280;50353;51.420;5.682;2023-05-25T01:07:54;102235.22;;;11.64;78.12
64095;BME280;50353;51.420;5.682;2023-05-25T01:10:21;102232.22;;;11.94;77.02
64095;BME280;50353;51.420;5.682;2023-05-25T01:12:47;102237.34;;;11.55;77.75
64095;BME280;50353;51.420;5.682;2023-05-25T01:15:15;102234.97;;;11.48;78.93
64095;BME280;50353;51.420;5.682;2023-05-25T01:17:41;102235.34;;;11.39;79.30
64095;BME280;50353;51.420;5.682;2023-05-25T01:20:07;102239.50;;;11.24;79.36
64095;BME280;50353;51.420;5.682;2023-05-25T01:22:39;102240.34;;;11.47;79.40
64095;BME280;50353;51.420;5.682;2023-05-25T01:25:11;102233.00;;;11.31;79.16
64095;BME280;50353;51.420;5.682;2023-05-25T01:27:48;102241.69;;;11.35;79.04
64095;BME280;50353;51.420;5.682;2023-05-25T01:30:16;102240.72;;;11.38;79.20
64095;BME280;50353;51.420;5.682;2023-05-25T01:32:44;102247.13;;;11.32;79.25
64095;BME280;50353;51.420;5.682;2023-05-25T01:35:10;102246.78;;;11.40;79.41
64095;BME280;50353;51.420;5.682;2023-05-25T01:37:36;102249.41;;;11.41;78.69
64095;BME280;50353;51.420;5.682;2023-05-25T01:40:03;102255.56;;;11.20;79.51
64095;BME280;50353;51.420;5.682;2023-05-25T01:42:30;102256.81;;;11.33;79.54
64095;BME280;50353;51.420;5.682;2023-05-25T01:44:55;102259.44;;;11.11;80.01
64095;BME280;50353;51.420;5.682;2023-05-25T01:47:28;102257.53;;;11.14;79.12
64095;BME280;50353;51.420;5.682;2023-05-25T01:49:59;102269.03;;;11.13;78.72
64095;BME280;50353;51.420;5.682;2023-05-25T01:52:35;102273.47;;;10.91;80.26
64095;BME280;50353;51.420;5.682;2023-05-25T01:55:10;102274.69;;;11.04;79.67
64095;BME280;50353;51.420;5.682;2023-05-25T01:57:37;102275.78;;;10.98;79.56
64095;BME280;50353;51.420;5.682;2023-05-25T02:00:06;102271.44;;;11.20;80.05
64095;BME280;50353;51.420;5.682;2023-05-25T02:02:34;102266.16;;;11.20;78.57
64095;BME280;50353;51.420;5.682;2023-05-25T02:05:00;102268.59;;;11.02;78.98
64095;BME280;50353;51.420;5.682;2023-05-25T02:07:25;102267.06;;;11.41;78.04
64095;BME280;50353;51.420;5.682;2023-05-25T02:09:51;102273.41;;;11.14;79.21
64095;BME280;50353;51.420;5.682;2023-05-25T02:12:16;102271.88;;;11.09;79.44
64095;BME280;50353;51.420;5.682;2023-05-25T02:14:41;102274.59;;;11.07;78.51
64095;BME280;50353;51.420;5.682;2023-05-25T02:17:07;102271.19;;;11.04;79.08
64095;BME280;50353;51.420;5.682;2023-05-25T02:19:32;102272.63;;;10.89;79.81
64095;BME280;50353;51.420;5.682;2023-05-25T02:21:57;102277.38;;;11.03;79.39
64095;BME280;50353;51.420;5.682;2023-05-25T02:24:23;102273.19;;;10.97;80.11
64095;BME280;50353;51.420;5.682;2023-05-25T02:26:49;102272.13;;;11.25;79.61
64095;BME280;50353;51.420;5.682;2023-05-25T02:29:15;102267.44;;;11.09;79.28
64095;BME280;50353;51.420;5.682;2023-05-25T02:31:40;102272.00;;;10.82;80.74
64095;BME280;50353;51.420;5.682;2023-05-25T02:34:05;102269.28;;;11.07;80.09
64095;BME280;50353;51.420;5.682;2023-05-25T02:36:32;102271.38;;;10.75;80.46
64095;BME280;50353;51.420;5.682;2023-05-25T02:38:58;102265.94;;;10.80;80.49
64095;BME280;50353;51.420;5.682;2023-05-25T02:41:24;102267.41;;;10.87;79.93
64095;BME280;50353;51.420;5.682;2023-05-25T02:43:50;102259.78;;;10.56;81.04
64095;BME280;50353;51.420;5.682;2023-05-25T02:46:15;102259.84;;;10.54;82.39
64095;BME280;50353;51.420;5.682;2023-05-25T02:48:41;102266.72;;;10.82;80.67
64095;BME280;50353;51.420;5.682;2023-05-25T02:51:06;102263.06;;;11.08;80.33
64095;BME280;50353;51.420;5.682;2023-05-25T02:53:32;102265.56;;;10.89;80.79
64095;BME280;50353;51.420;5.682;2023-05-25T02:55:57;102264.22;;;11.01;80.15
64095;BME280;50353;51.420;5.682;2023-05-25T02:58:22;102270.41;;;10.54;81.18
64095;BME280;50353;51.420;5.682;2023-05-25T03:00:48;102273.75;;;10.34;81.11
64095;BME280;50353;51.420;5.682;2023-05-25T03:03:14;102279.03;;;10.34;82.45
64095;BME280;50353;51.420;5.682;2023-05-25T03:05:40;102276.56;;;10.29;82.19
64095;BME280;50353;51.420;5.682;2023-05-25T03:08:05;102280.09;;;10.54;82.00
64095;BME280;50353;51.420;5.682;2023-05-25T03:10:30;102277.41;;;10.30;82.34
64095;BME280;50353;51.420;5.682;2023-05-25T03:12:56;102281.78;;;10.56;81.07
64095;BME280;50353;51.420;5.682;2023-05-25T03:15:21;102279.00;;;10.61;79.90
64095;BME280;50353;51.420;5.682;2023-05-25T03:17:47;102286.13;;;10.34;80.47
64095;BME280;50353;51.420;5.682;2023-05-25T03:20:12;102285.53;;;10.51;80.33
64095;BME280;50353;51.420;5.682;2023-05-25T03:22:40;102286.34;;;10.53;80.40
64095;BME280;50353;51.420;5.682;2023-05-25T03:25:06;102294.47;;;10.46;81.46
64095;BME280;50353;51.420;5.682;2023-05-25T03:27:31;102292.47;;;10.53;81.16
64095;BME280;50353;51.420;5.682;2023-05-25T03:29:56;102294.59;;;10.43;80.83
64095;BME280;50353;51.420;5.682;2023-05-25T03:32:22;102298.97;;;10.44;81.56
64095;BME280;50353;51.420;5.682;2023-05-25T03:34:48;102304.03;;;10.51;80.57
64095;BME280;50353;51.420;5.682;2023-05-25T03:37:13;102298.28;;;10.63;80.62
64095;BME280;50353;51.420;5.682;2023-05-25T03:39:39;102304.75;;;10.29;81.08
64095;BME280;50353;51.420;5.682;2023-05-25T03:42:04;102310.28;;;10.48;80.19
64095;BME280;50353;51.420;5.682;2023-05-25T03:44:30;102307.97;;;10.39;81.28
64095;BME280;50353;51.420;5.682;2023-05-25T03:46:56;102312.34;;;10.65;81.23
64095;BME280;50353;51.420;5.682;2023-05-25T03:49:22;102313.50;;;10.31;81.81
64095;BME280;50353;51.420;5.682;2023-05-25T03:51:47;102306.31;;;10.36;82.10
64095;BME280;50353;51.420;5.682;2023-05-25T03:54:12;102317.19;;;10.27;82.38
64095;BME280;50353;51.420;5.682;2023-05-25T03:56:38;102316.16;;;10.31;83.55
64095;BME280;50353;51.420;5.682;2023-05-25T03:59:03;102320.38;;;9.85;85.47
64095;BME280;50353;51.420;5.682;2023-05-25T04:01:28;102322.22;;;10.33;83.72
64095;BME280;50353;51.420;5.682;2023-05-25T04:03:55;102326.66;;;10.58;82.57
64095;BME280;50353;51.420;5.682;2023-05-25T04:06:21;102329.88;;;10.42;82.14
64095;BME280;50353;51.420;5.682;2023-05-25T04:08:50;102327.69;;;10.28;84.34
64095;BME280;50353;51.420;5.682;2023-05-25T04:11:15;102332.31;;;10.22;84.12
64095;BME280;50353;51.420;5.682;2023-05-25T04:13:41;102328.78;;;10.23;83.74
64095;BME280;50353;51.420;5.682;2023-05-25T04:16:06;102324.81;;;10.09;85.38
64095;BME280;50353;51.420;5.682;2023-05-25T04:18:31;102331.97;;;10.58;83.57
64095;BME280;50353;51.420;5.682;2023-05-25T04:20:57;102319.47;;;10.11;85.08
64095;BME280;50353;51.420;5.682;2023-05-25T04:23:23;102323.25;;;10.56;83.78
64095;BME280;50353;51.420;5.682;2023-05-25T04:25:48;102332.97;;;10.55;84.19
64095;BME280;50353;51.420;5.682;2023-05-25T04:28:15;102332.09;;;10.55;84.01
64095;BME280;50353;51.420;5.682;2023-05-25T04:30:41;102327.28;;;10.90;82.97
64095;BME280;50353;51.420;5.682;2023-05-25T04:33:08;102325.34;;;10.95;82.21
64095;BME280;50353;51.420;5.682;2023-05-25T04:35:35;102322.69;;;10.95;82.52
64095;BME280;50353;51.420;5.682;2023-05-25T04:38:01;102331.16;;;11.27;82.03
64095;BME280;50353;51.420;5.682;2023-05-25T04:40:26;102331.66;;;10.91;83.36
64095;BME280;50353;51.420;5.682;2023-05-25T04:42:52;102334.91;;;10.97;82.89
64095;BME280;50353;51.420;5.682;2023-05-25T04:45:18;102338.13;;;11.29;82.33
64095;BME280;50353;51.420;5.682;2023-05-25T04:47:45;102335.50;;;11.06;83.40
64095;BME280;50353;51.420;5.682;2023-05-25T04:50:12;102343.19;;;10.64;85.47
64095;BME280;50353;51.420;5.682;2023-05-25T04:52:38;102351.88;;;10.92;84.92
64095;BME280;50353;51.420;5.682;2023-05-25T04:55:03;102346.53;;;10.93;84.22
64095;BME280;50353;51.420;5.682;2023-05-25T04:57:28;102345.69;;;11.61;81.62
64095;BME280;50353;51.420;5.682;2023-05-25T04:59:56;102341.88;;;11.00;83.55
64095;BME280;50353;51.420;5.682;2023-05-25T05:02:21;102350.72;;;11.23;83.04
64095;BME280;50353;51.420;5.682;2023-05-25T05:04:46;102357.28;;;11.12;82.33
64095;BME280;50353;51.420;5.682;2023-05-25T05:07:12;102356.53;;;11.32;82.36
64095;BME280;50353;51.420;5.682;2023-05-25T05:09:37;102360.06;;;11.33;82.80
64095;BME280;50353;51.420;5.682;2023-05-25T05:12:02;102364.72;;;11.71;81.05
64095;BME280;50353;51.420;5.682;2023-05-25T05:14:28;102366.28;;;11.54;81.70
64095;BME280;50353;51.420;5.682;2023-05-25T05:16:53;102364.16;;;11.84;80.58
64095;BME280;50353;51.420;5.682;2023-05-25T05:19:19;102362.78;;;11.98;79.76
64095;BME280;50353;51.420;5.682;2023-05-25T05:21:44;102363.47;;;12.24;79.28
64095;BME280;50353;51.420;5.682;2023-05-25T05:24:10;102371.41;;;12.03;80.85
64095;BME280;50353;51.420;5.682;2023-05-25T05:26:35;102377.97;;;11.93;81.04
64095;BME280;50353;51.420;5.682;2023-05-25T05:29:02;102372.22;;;12.26;79.97
64095;BME280;50353;51.420;5.682;2023-05-25T05:31:28;102377.69;;;12.00;81.70
64095;BME280;50353;51.420;5.682;2023-05-25T05:33:54;102375.09;;;11.99;79.52
64095;BME280;50353;51.420;5.682;2023-05-25T05:36:19;102377.06;;;11.72;82.14
64095;BME280;50353;51.420;5.682;2023-05-25T05:38:44;102381.09;;;12.04;81.09
64095;BME280;50353;51.420;5.682;2023-05-25T05:41:11;102378.31;;;12.28;81.20
64095;BME280;50353;51.420;5.682;2023-05-25T05:43:40;102376.97;;;12.79;77.97
64095;BME280;50353;51.420;5.682;2023-05-25T05:46:07;102371.56;;;12.41;79.33
64095;BME280;50353;51.420;5.682;2023-05-25T05:48:33;102384.22;;;12.34;79.72
64095;BME280;50353;51.420;5.682;2023-05-25T05:50:58;102388.28;;;13.23;77.17
64095;BME280;50353;51.420;5.682;2023-05-25T05:53:24;102395.75;;;12.94;77.37
64095;BME280;50353;51.420;5.682;2023-05-25T05:55:49;102396.50;;;12.97;77.91
64095;BME280;50353;51.420;5.682;2023-05-25T05:58:18;102400.03;;;12.98;76.66
64095;BME280;50353;51.420;5.682;2023-05-25T06:00:43;102401.53;;;13.04;76.97
64095;BME280;50353;51.420;5.682;2023-05-25T06:03:08;102410.16;;;13.66;76.40
64095;BME280;50353;51.420;5.682;2023-05-25T06:05:34;102405.44;;;13.53;75.61
64095;BME280;50353;51.420;5.682;2023-05-25T06:07:59;102407.63;;;13.82;75.86
64095;BME280;50353;51.420;5.682;2023-05-25T06:10:25;102410.34;;;13.99;74.70
64095;BME280;50353;51.420;5.682;2023-05-25T06:12:51;102407.22;;;14.09;73.44
64095;BME280;50353;51.420;5.682;2023-05-25T06:15:16;102410.91;;;14.24;73.31
64095;BME280;50353;51.420;5.682;2023-05-25T06:17:41;102407.84;;;14.31;72.54
64095;BME280;50353;51.420;5.682;2023-05-25T06:20:08;102413.88;;;14.35;73.54
64095;BME280;50353;51.420;5.682;2023-05-25T06:22:34;102415.19;;;14.44;72.69
64095;BME280;50353;51.420;5.682;2023-05-25T06:24:59;102424.47;;;14.00;74.32
64095;BME280;50353;51.420;5.682;2023-05-25T06:27:25;102421.16;;;14.14;73.25
64095;BME280;50353;51.420;5.682;2023-05-25T06:29:50;102424.53;;;14.70;70.96
64095;BME280;50353;51.420;5.682;2023-05-25T06:32:16;102420.94;;;14.36;72.76
64095;BME280;50353;51.420;5.682;2023-05-25T06:34:41;102431.16;;;14.61;71.91
64095;BME280;50353;51.420;5.682;2023-05-25T06:37:06;102423.75;;;14.68;71.12
64095;BME280;50353;51.420;5.682;2023-05-25T06:39:31;102427.38;;;15.34;68.26
64095;BME280;50353;51.420;5.682;2023-05-25T06:41:57;102430.59;;;14.90;70.15
64095;BME280;50353;51.420;5.682;2023-05-25T06:44:22;102440.06;;;14.95;69.45
64095;BME280;50353;51.420;5.682;2023-05-25T06:46:47;102434.66;;;15.30;69.91
64095;BME280;50353;51.420;5.682;2023-05-25T06:49:13;102445.69;;;15.56;67.84
64095;BME280;50353;51.420;5.682;2023-05-25T06:51:38;102443.59;;;15.45;67.07
64095;BME280;50353;51.420;5.682;2023-05-25T06:54:03;102444.16;;;15.18;68.45
64095;BME280;50353;51.420;5.682;2023-05-25T06:56:28;102442.22;;;14.53;70.62
64095;BME280;50353;51.420;5.682;2023-05-25T06:58:54;102442.16;;;15.40;69.82
64095;BME280;50353;51.420;5.682;2023-05-25T07:01:19;102441.09;;;15.58;68.24
64095;BME280;50353;51.420;5.682;2023-05-25T07:03:45;102438.72;;;15.53;67.54
64095;BME280;50353;51.420;5.682;2023-05-25T07:06:10;102442.44;;;15.83;68.32
64095;BME280;50353;51.420;5.682;2023-05-25T07:08:36;102450.59;;;15.80;66.78
64095;BME280;50353;51.420;5.682;2023-05-25T07:11:02;102445.94;;;15.67;66.11
64095;BME280;50353;51.420;5.682;2023-05-25T07:13:27;102451.31;;;15.83;65.79
64095;BME280;50353;51.420;5.682;2023-05-25T07:15:52;102451.19;;;16.01;66.34
64095;BME280;50353;51.420;5.682;2023-05-25T07:18:17;102446.91;;;16.29;64.75
64095;BME280;50353;51.420;5.682;2023-05-25T07:20:43;102446.53;;;15.57;65.80
64095;BME280;50353;51.420;5.682;2023-05-25T07:23:12;102444.13;;;16.16;64.15
64095;BME280;50353;51.420;5.682;2023-05-25T07:25:38;102444.81;;;16.50;63.06
64095;BME280;50353;51.420;5.682;2023-05-25T07:28:04;102446.91;;;16.89;61.73
64095;BME280;50353;51.420;5.682;2023-05-25T07:30:29;102455.19;;;16.24;65.28
64095;BME280;50353;51.420;5.682;2023-05-25T07:32:54;102449.75;;;17.44;63.52
64095;BME280;50353;51.420;5.682;2023-05-25T07:35:21;102459.53;;;17.72;60.79
64095;BME280;50353;51.420;5.682;2023-05-25T07:38:03;102459.50;;;17.45;61.10
64095;BME280;50353;51.420;5.682;2023-05-25T07:40:29;102457.66;;;17.31;61.05
64095;BME280;50353;51.420;5.682;2023-05-25T07:42:55;102459.50;;;17.45;60.62
64095;BME280;50353;51.420;5.682;2023-05-25T07:45:21;102461.28;;;17.45;58.17
64095;BME280;50353;51.420;5.682;2023-05-25T07:47:46;102454.69;;;18.19;58.00
64095;BME280;50353;51.420;5.682;2023-05-25T07:50:13;102453.81;;;17.64;58.57
64095;BME280;50353;51.420;5.682;2023-05-25T07:52:39;102465.72;;;16.86;60.80
64095;BME280;50353;51.420;5.682;2023-05-25T07:55:05;102466.88;;;16.37;61.68
64095;BME280;50353;51.420;5.682;2023-05-25T07:57:31;102463.91;;;15.64;64.92
64095;BME280;50353;51.420;5.682;2023-05-25T07:59:56;102464.28;;;16.36;61.89
64095;BME280;50353;51.420;5.682;2023-05-25T08:02:22;102468.59;;;16.69;60.35
64095;BME280;50353;51.420;5.682;2023-05-25T08:04:47;102476.38;;;15.63;62.81
64095;BME280;50353;51.420;5.682;2023-05-25T08:07:13;102469.13;;;17.33;59.32
64095;BME280;50353;51.420;5.682;2023-05-25T08:09:38;102462.03;;;17.88;57.83
64095;BME280;50353;51.420;5.682;2023-05-25T08:12:03;102472.44;;;17.51;57.97
64095;BME280;50353;51.420;5.682;2023-05-25T08:14:29;102478.03;;;17.76;57.08
64095;BME280;50353;51.420;5.682;2023-05-25T08:16:54;102480.66;;;16.60;60.13
64095;BME280;50353;51.420;5.682;2023-05-25T08:19:19;102479.56;;;16.79;60.47
64095;BME280;50353;51.420;5.682;2023-05-25T08:21:45;102488.25;;;16.21;62.23
64095;BME280;50353;51.420;5.682;2023-05-25T08:24:10;102482.13;;;16.80;60.24
64095;BME280;50353;51.420;5.682;2023-05-25T08:26:35;102491.16;;;16.33;60.48
64095;BME280;50353;51.420;5.682;2023-05-25T08:29:04;102492.66;;;16.53;60.60
64095;BME280;50353;51.420;5.682;2023-05-25T08:31:33;102486.31;;;17.00;60.96
64095;BME280;50353;51.420;5.682;2023-05-25T08:33:59;102486.31;;;16.70;62.73
64095;BME280;50353;51.420;5.682;2023-05-25T08:36:25;102489.22;;;16.51;62.40
64095;BME280;50353;51.420;5.682;2023-05-25T08:38:51;102498.94;;;16.21;62.92
64095;BME280;50353;51.420;5.682;2023-05-25T08:41:18;102481.28;;;16.49;60.80
64095;BME280;50353;51.420;5.682;2023-05-25T08:43:44;102492.81;;;16.19;63.53
64095;BME280;50353;51.420;5.682;2023-05-25T08:46:10;102490.09;;;16.05;63.08
64095;BME280;50353;51.420;5.682;2023-05-25T08:48:36;102487.81;;;16.60;62.74
64095;BME280;50353;51.420;5.682;2023-05-25T08:51:06;102485.69;;;15.88;63.63
64095;BME280;50353;51.420;5.682;2023-05-25T08:53:36;102490.91;;;16.37;65.13
64095;BME280;50353;51.420;5.682;2023-05-25T08:56:24;102495.56;;;15.70;64.34
64095;BME280;50353;51.420;5.682;2023-05-25T08:59:02;102489.84;;;16.40;62.07
64095;BME280;50353;51.420;5.682;2023-05-25T09:01:32;102490.66;;;18.15;57.54
64095;BME280;50353;51.420;5.682;2023-05-25T09:04:01;102489.75;;;18.02;58.04
64095;BME280;50353;51.420;5.682;2023-05-25T09:06:27;102486.59;;;17.39;59.90
64095;BME280;50353;51.420;5.682;2023-05-25T09:08:53;102493.47;;;17.14;60.37
64095;BME280;50353;51.420;5.682;2023-05-25T09:11:19;102491.66;;;17.29;59.23
64095;BME280;50353;51.420;5.682;2023-05-25T09:13:45;102486.91;;;17.34;61.25
64095;BME280;50353;51.420;5.682;2023-05-25T09:16:11;102490.13;;;17.25;60.50
64095;BME280;50353;51.420;5.682;2023-05-25T09:18:36;102487.97;;;16.87;60.30
64095;BME280;50353;51.420;5.682;2023-05-25T09:21:01;102485.81;;;17.66;60.85
64095;BME280;50353;51.420;5.682;2023-05-25T09:23:27;102483.53;;;17.31;58.94
64095;BME280;50353;51.420;5.682;2023-05-25T09:25:52;102498.34;;;17.36;59.33
64095;BME280;50353;51.420;5.682;2023-05-25T09:28:18;102484.28;;;17.04;59.85
64095;BME280;50353;51.420;5.682;2023-05-25T09:30:44;102489.81;;;17.58;59.67
64095;BME280;50353;51.420;5.682;2023-05-25T09:33:14;102495.56;;;17.09;60.08
64095;BME280;50353;51.420;5.682;2023-05-25T09:35:44;102498.69;;;16.56;61.69
64095;BME280;50353;51.420;5.682;2023-05-25T09:38:12;102496.25;;;16.82;61.15
64095;BME280;50353;51.420;5.682;2023-05-25T09:40:37;102493.84;;;17.66;58.11
64095;BME280;50353;51.420;5.682;2023-05-25T09:43:02;102502.94;;;17.34;58.60
64095;BME280;50353;51.420;5.682;2023-05-25T09:45:28;102491.09;;;17.24;57.52
64095;BME280;50353;51.420;5.682;2023-05-25T09:47:55;102492.69;;;17.12;57.60
64095;BME280;50353;51.420;5.682;2023-05-25T09:50:21;102491.09;;;16.65;61.06
64095;BME280;50353;51.420;5.682;2023-05-25T09:52:47;102504.91;;;17.02;59.94
64095;BME280;50353;51.420;5.682;2023-05-25T09:55:12;102499.28;;;16.92;59.64
64095;BME280;50353;51.420;5.682;2023-05-25T09:57:38;102503.47;;;16.96;60.51
64095;BME280;50353;51.420;5.682;2023-05-25T10:00:05;102513.84;;;16.40;63.03
64095;BME280;50353;51.420;5.682;2023-05-25T10:02:31;102508.41;;;16.58;62.54
64095;BME280;50353;51.420;5.682;2023-05-25T10:04:56;102518.06;;;16.44;62.96
64095;BME280;50353;51.420;5.682;2023-05-25T10:07:22;102508.59;;;16.54;63.61
64095;BME280;50353;51.420;5.682;2023-05-25T10:09:49;102516.72;;;16.37;62.92
64095;BME280;50353;51.420;5.682;2023-05-25T10:12:18;102523.97;;;16.35;62.10
64095;BME280;50353;51.420;5.682;2023-05-25T10:14:45;102522.53;;;16.60;63.15
64095;BME280;50353;51.420;5.682;2023-05-25T10:17:13;102523.78;;;16.68;63.81
64095;BME280;50353;51.420;5.682;2023-05-25T10:22:24;102521.81;;;16.26;63.88
64095;BME280;50353;51.420;5.682;2023-05-25T10:24:58;102522.47;;;16.45;62.98
64095;BME280;50353;51.420;5.682;2023-05-25T10:27:33;102522.34;;;16.32;62.43
64095;BME280;50353;51.420;5.682;2023-05-25T10:30:03;102521.50;;;16.77;62.41
64095;BME280;50353;51.420;5.682;2023-05-25T10:32:29;102522.16;;;16.35;64.25
64095;BME280;50353;51.420;5.682;2023-05-25T10:34:58;102514.94;;;16.82;61.04
64095;BME280;50353;51.420;5.682;2023-05-25T10:37:25;102519.34;;;16.83;62.72
64095;BME280;50353;51.420;5.682;2023-05-25T10:39:51;102514.13;;;16.66;62.21
64095;BME280;50353;51.420;5.682;2023-05-25T10:42:17;102513.06;;;16.84;61.83
64095;BME280;50353;51.420;5.682;2023-05-25T10:44:44;102514.28;;;17.23;62.36
64095;BME280;50353;51.420;5.682;2023-05-25T10:47:10;102522.78;;;16.85;61.11
64095;BME280;50353;51.420;5.682;2023-05-25T10:49:51;102521.34;;;16.80;60.44
64095;BME280;50353;51.420;5.682;2023-05-25T10:52:17;102522.97;;;17.13;61.66
64095;BME280;50353;51.420;5.682;2023-05-25T10:54:47;102517.91;;;17.22;59.82
64095;BME280;50353;51.420;5.682;2023-05-25T10:57:19;102513.50;;;17.50;58.32
64095;BME280;50353;51.420;5.682;2023-05-25T10:59:52;102522.84;;;17.29;59.23
64095;BME280;50353;51.420;5.682;2023-05-25T11:02:26;102524.34;;;16.89;59.91
64095;BME280;50353;51.420;5.682;2023-05-25T11:07:57;102528.88;;;16.27;64.19
64095;BME280;50353;51.420;5.682;2023-05-25T11:13:35;102523.66;;;16.55;61.73
64095;BME280;50353;51.420;5.682;2023-05-25T11:18:55;102517.72;;;16.81;59.68
64095;BME280;50353;51.420;5.682;2023-05-25T11:26:25;102513.31;;;17.10;60.72
64095;BME280;50353;51.420;5.682;2023-05-25T11:28:54;102509.97;;;16.76;62.22
64095;BME280;50353;51.420;5.682;2023-05-25T11:31:26;102504.06;;;17.16;59.86
64095;BME280;50353;51.420;5.682;2023-05-25T11:33:54;102500.13;;;16.93;60.62
64095;BME280;50353;51.420;5.682;2023-05-25T11:36:22;102495.41;;;17.41;59.31
64095;BME280;50353;51.420;5.682;2023-05-25T11:38:47;102508.34;;;17.62;58.96
64095;BME280;50353;51.420;5.682;2023-05-25T11:41:22;102508.53;;;17.58;60.33
64095;BME280;50353;51.420;5.682;2023-05-25T11:43:48;102496.56;;;17.79;57.81
64095;BME280;50353;51.420;5.682;2023-05-25T11:46:18;102502.81;;;17.50;59.26
64095;BME280;50353;51.420;5.682;2023-05-25T11:48:50;102497.09;;;17.42;56.89
64095;BME280;50353;51.420;5.682;2023-05-25T11:51:17;102490.47;;;17.62;58.14
64095;BME280;50353;51.420;5.682;2023-05-25T11:53:44;102487.69;;;17.78;57.61
64095;BME280;50353;51.420;5.682;2023-05-25T11:56:12;102489.84;;;17.86;57.53
64095;BME280;50353;51.420;5.682;2023-05-25T11:58:37;102492.31;;;17.47;56.12
64095;BME280;50353;51.420;5.682;2023-05-25T12:01:16;102483.75;;;18.26;55.47
64095;BME280;50353;51.420;5.682;2023-05-25T12:03:49;102497.16;;;18.38;55.07
64095;BME280;50353;51.420;5.682;2023-05-25T12:06:26;102484.34;;;18.44;53.73
64095;BME280;50353;51.420;5.682;2023-05-25T12:08:53;102482.75;;;17.29;57.87
64095;BME280;50353;51.420;5.682;2023-05-25T12:11:39;102486.69;;;18.08;56.26
64095;BME280;50353;51.420;5.682;2023-05-25T12:14:09;102483.38;;;18.17;55.33
64095;BME280;50353;51.420;5.682;2023-05-25T12:16:36;102482.19;;;18.08;56.37
64095;BME280;50353;51.420;5.682;2023-05-25T12:19:06;102471.06;;;17.87;57.43
64095;BME280;50353;51.420;5.682;2023-05-25T12:21:32;102467.50;;;19.07;53.52
64095;BME280;50353;51.420;5.682;2023-05-25T12:23:59;102458.88;;;19.15;53.80
64095;BME280;50353;51.420;5.682;2023-05-25T12:26:26;102461.06;;;18.44;54.28
64095;BME280;50353;51.420;5.682;2023-05-25T12:28:59;102460.19;;;19.22;54.85
64095;BME280;50353;51.420;5.682;2023-05-25T12:31:27;102458.22;;;19.74;53.47
64095;BME280;50353;51.420;5.682;2023-05-25T12:34:11;102467.09;;;19.51;52.80
64095;BME280;50353;51.420;5.682;2023-05-25T12:36:51;102459.13;;;19.12;51.32
64095;BME280;50353;51.420;5.682;2023-05-25T12:39:32;102462.59;;;19.75;53.73
64095;BME280;50353;51.420;5.682;2023-05-25T12:42:03;102459.97;;;19.25;51.60
64095;BME280;50353;51.420;5.682;2023-05-25T12:44:30;102463.56;;;18.73;52.72
64095;BME280;50353;51.420;5.682;2023-05-25T12:47:08;102444.00;;;19.24;50.27
64095;BME280;50353;51.420;5.682;2023-05-25T12:49:37;102451.34;;;19.33;51.28
64095;BME280;50353;51.420;5.682;2023-05-25T12:52:04;102455.34;;;20.02;49.77
64095;BME280;50353;51.420;5.682;2023-05-25T12:56:59;102456.13;;;19.04;51.24
64095;BME280;50353;51.420;5.682;2023-05-25T12:59:27;102451.75;;;18.90;53.50
64095;BME280;50353;51.420;5.682;2023-05-25T13:01:52;102452.19;;;18.56;55.55
64095;BME280;50353;51.420;5.682;2023-05-25T13:04:17;102449.63;;;18.68;51.94
64095;BME280;50353;51.420;5.682;2023-05-25T13:06:42;102451.53;;;19.56;50.08
64095;BME280;50353;51.420;5.682;2023-05-25T13:09:08;102441.72;;;19.68;51.71